createdAt,value
2023-04-19T00:01:33.930Z,100.00
2023-04-19T00:04:03.770Z,100.00
2023-04-19T00:06:32.006Z,100.00
2023-04-19T00:09:00.230Z,100.00
2023-04-19T00:11:28.362Z,100.00
2023-04-19T00:13:56.566Z,100.00
2023-04-19T00:16:24.789Z,100.00
2023-04-19T00:18:53.061Z,100.00
2023-04-19T00:21:21.300Z,100.00
2023-04-19T00:23:49.450Z,100.00
2023-04-19T00:26:17.584Z,100.00
2023-04-19T00:28:48.809Z,100.00
2023-04-19T00:31:17.231Z,100.00
2023-04-19T00:33:45.463Z,100.00
2023-04-19T00:36:13.730Z,100.00
2023-04-19T00:38:41.885Z,100.00
2023-04-19T00:41:11.599Z,100.00
2023-04-19T00:43:39.900Z,100.00
2023-04-19T00:46:08.057Z,100.00
2023-04-19T00:48:36.406Z,100.00
2023-04-19T00:51:04.849Z,100.00
2023-04-19T00:53:33.289Z,100.00
2023-04-19T00:56:01.579Z,100.00
2023-04-19T00:58:31.609Z,100.00
2023-04-19T01:01:00.560Z,100.00
2023-04-19T01:03:32.094Z,100.00
2023-04-19T01:06:00.325Z,99.99
2023-04-19T01:08:28.364Z,98.67
2023-04-19T01:10:56.516Z,97.72
2023-04-19T01:13:25.132Z,97.91
2023-04-19T01:15:53.246Z,97.02
2023-04-19T01:18:24.458Z,97.13
2023-04-19T01:20:52.928Z,96.14
2023-04-19T01:23:21.552Z,95.38
2023-04-19T01:25:50.722Z,97.06
2023-04-19T01:28:19.024Z,97.82
2023-04-19T01:30:51.309Z,97.86
2023-04-19T01:33:21.114Z,98.95
2023-04-19T01:35:49.539Z,99.56
2023-04-19T01:38:17.757Z,99.21
2023-04-19T01:40:46.175Z,100.00
2023-04-19T01:43:17.411Z,100.00
2023-04-19T01:45:46.171Z,100.00
2023-04-19T01:48:14.730Z,100.00
2023-04-19T01:50:42.824Z,100.00
2023-04-19T01:53:12.306Z,100.00
2023-04-19T01:55:40.607Z,100.00
2023-04-19T01:58:09.967Z,100.00
2023-04-19T02:00:38.137Z,100.00
2023-04-19T02:03:06.405Z,100.00
2023-04-19T02:05:34.827Z,100.00
2023-04-19T02:08:03.100Z,100.00
2023-04-19T02:10:32.228Z,100.00
2023-04-19T02:13:00.368Z,100.00
2023-04-19T02:15:29.332Z,100.00
2023-04-19T02:17:57.605Z,100.00
2023-04-19T02:20:25.926Z,100.00
2023-04-19T02:22:54.133Z,100.00
2023-04-19T02:25:22.230Z,100.00
2023-04-19T02:27:51.136Z,100.00
2023-04-19T02:30:19.431Z,100.00
2023-04-19T02:32:51.354Z,100.00
2023-04-19T02:35:19.646Z,99.94
2023-04-19T02:37:47.722Z,99.99
2023-04-19T02:40:16.209Z,99.80
2023-04-19T02:42:44.240Z,99.50
2023-04-19T02:45:12.516Z,100.00
2023-04-19T02:47:40.965Z,100.00
2023-04-19T02:50:09.692Z,100.00
2023-04-19T02:52:42.208Z,100.00
2023-04-19T02:55:10.539Z,100.00
2023-04-19T02:57:39.314Z,100.00
2023-04-19T03:00:09.272Z,100.00
2023-04-19T03:02:39.681Z,99.82
2023-04-19T03:05:08.953Z,100.00
2023-04-19T03:07:37.387Z,100.00
2023-04-19T03:10:06.233Z,100.00
2023-04-19T03:12:34.468Z,100.00
2023-04-19T03:15:02.704Z,100.00
2023-04-19T03:17:31.112Z,100.00
2023-04-19T03:19:59.398Z,100.00
2023-04-19T03:22:28.126Z,100.00
2023-04-19T03:24:56.904Z,100.00
2023-04-19T03:27:25.781Z,100.00
2023-04-19T03:29:58.356Z,100.00
2023-04-19T03:32:27.392Z,100.00
2023-04-19T03:34:55.528Z,100.00
2023-04-19T03:37:23.635Z,100.00
2023-04-19T03:39:51.785Z,100.00
2023-04-19T03:42:26.004Z,100.00
2023-04-19T03:45:16.054Z,100.00
2023-04-19T03:47:47.385Z,100.00
2023-04-19T03:50:15.984Z,100.00
2023-04-19T03:52:46.338Z,100.00
2023-04-19T03:55:14.662Z,100.00
2023-04-19T03:57:42.832Z,100.00
2023-04-19T04:00:17.848Z,100.00
2023-04-19T04:02:50.214Z,100.00
2023-04-19T04:05:18.723Z,100.00
2023-04-19T04:07:47.066Z,100.00
2023-04-19T04:10:15.796Z,100.00
2023-04-19T04:12:44.450Z,100.00
2023-04-19T04:15:15.597Z,100.00
2023-04-19T04:17:48.391Z,100.00
2023-04-19T04:20:16.706Z,100.00
2023-04-19T04:22:48.443Z,100.00
2023-04-19T04:25:20.555Z,100.00
2023-04-19T04:27:54.670Z,100.00
2023-04-19T04:30:24.809Z,100.00
2023-04-19T04:32:58.091Z,100.00
2023-04-19T04:35:29.126Z,100.00
2023-04-19T04:38:11.132Z,100.00
2023-04-19T04:40:43.941Z,99.76
2023-04-19T04:43:13.543Z,98.42
2023-04-19T04:45:44.626Z,98.43
2023-04-19T04:48:13.472Z,97.40
2023-04-19T04:50:41.854Z,94.59
2023-04-19T04:53:11.073Z,95.70
2023-04-19T04:55:42.853Z,97.69
2023-04-19T04:58:12.617Z,98.97
2023-04-19T05:00:51.663Z,100.00
2023-04-19T05:03:21.479Z,100.00
2023-04-19T05:05:54.900Z,100.00
2023-04-19T05:08:28.478Z,100.00
2023-04-19T05:11:00.820Z,100.00
2023-04-19T05:13:30.507Z,100.00
2023-04-19T05:16:00.517Z,97.85
2023-04-19T05:18:29.413Z,96.13
2023-04-19T05:20:58.598Z,95.21
2023-04-19T05:23:29.507Z,88.82
2023-04-19T05:25:58.665Z,87.41
2023-04-19T05:28:28.058Z,89.29
2023-04-19T05:31:09.383Z,90.17
2023-04-19T05:33:45.004Z,91.78
2023-04-19T05:36:13.124Z,93.28
2023-04-19T05:38:41.215Z,90.53
2023-04-19T05:41:09.333Z,93.61
2023-04-19T05:43:37.441Z,92.12
2023-04-19T05:46:06.377Z,93.94
2023-04-19T05:48:34.711Z,94.21
2023-04-19T05:51:11.228Z,92.60
2023-04-19T05:54:00.298Z,90.57
2023-04-19T05:56:28.669Z,91.64
2023-04-19T05:58:57.068Z,92.28
2023-04-19T06:01:25.273Z,90.95
2023-04-19T06:03:54.468Z,90.00
2023-04-19T06:06:23.925Z,90.89
2023-04-19T06:08:54.656Z,92.03
2023-04-19T06:11:26.950Z,94.48
2023-04-19T06:14:03.695Z,92.57
2023-04-19T06:16:32.716Z,95.69
2023-04-19T06:19:01.034Z,96.73
2023-04-19T06:21:33.057Z,94.53
2023-04-19T06:24:01.511Z,97.79
2023-04-19T06:26:29.856Z,96.06
2023-04-19T06:28:58.056Z,96.17
2023-04-19T06:31:26.191Z,99.44
2023-04-19T06:33:54.316Z,99.29
2023-04-19T06:36:22.466Z,98.92
2023-04-19T06:38:50.806Z,97.17
2023-04-19T06:41:19.598Z,95.84
2023-04-19T06:43:48.110Z,95.62
2023-04-19T06:46:16.549Z,95.61
2023-04-19T06:48:44.862Z,97.16
2023-04-19T06:51:12.991Z,96.64
2023-04-19T06:53:41.150Z,92.65
2023-04-19T06:56:10.395Z,94.98
2023-04-19T06:58:38.656Z,99.47
2023-04-19T07:01:07.682Z,99.04
2023-04-19T07:03:36.448Z,99.54
2023-04-19T07:06:04.987Z,99.39
2023-04-19T07:08:48.784Z,99.31
2023-04-19T07:11:20.370Z,98.77
2023-04-19T07:13:50.257Z,99.71
2023-04-19T07:16:18.549Z,98.52
2023-04-19T07:18:46.694Z,98.09
2023-04-19T07:21:14.957Z,96.17
2023-04-19T07:23:43.010Z,94.33
2023-04-19T07:26:11.363Z,88.42
2023-04-19T07:28:39.968Z,84.59
2023-04-19T07:31:08.047Z,79.80
2023-04-19T07:33:36.235Z,78.31
2023-04-19T07:36:04.371Z,77.49
2023-04-19T07:38:32.582Z,75.07
2023-04-19T07:41:00.718Z,74.23
2023-04-19T07:43:30.310Z,75.83
2023-04-19T07:45:58.444Z,79.38
2023-04-19T07:48:27.336Z,81.37
2023-04-19T07:50:55.648Z,81.16
2023-04-19T07:53:23.772Z,79.55
2023-04-19T07:55:51.833Z,79.17
2023-04-19T07:58:19.955Z,78.99
2023-04-19T08:00:48.408Z,79.21
2023-04-19T08:03:16.727Z,79.22
2023-04-19T08:05:45.845Z,77.60
2023-04-19T08:08:13.945Z,76.86
2023-04-19T08:10:42.395Z,68.68
2023-04-19T08:13:10.629Z,67.15
2023-04-19T08:16:18.073Z,67.12
2023-04-19T08:18:27.089Z,67.14
2023-04-19T08:20:56.696Z,65.99
2023-04-19T08:23:31.823Z,66.36
2023-04-19T08:26:06.235Z,66.82
2023-04-19T08:28:34.377Z,64.49
2023-04-19T08:31:06.008Z,64.19
2023-04-19T08:33:35.944Z,61.54
2023-04-19T08:36:05.378Z,61.08
2023-04-19T08:38:33.474Z,58.82
2023-04-19T08:41:01.654Z,53.52
2023-04-19T08:43:33.509Z,49.05
2023-04-19T08:46:01.718Z,48.98
2023-04-19T08:48:29.982Z,48.22
2023-04-19T08:51:05.024Z,46.32
2023-04-19T08:53:35.950Z,45.09
2023-04-19T08:56:17.406Z,45.16
2023-04-19T09:01:33.689Z,44.18
2023-04-19T09:04:16.990Z,43.46
2023-04-19T09:06:55.487Z,42.52
2023-04-19T09:11:59.491Z,42.79
2023-04-19T09:14:28.354Z,43.00
2023-04-19T09:17:17.384Z,44.15
2023-04-19T09:19:49.714Z,44.11
2023-04-19T09:22:18.763Z,43.97
2023-04-19T09:25:22.780Z,44.11
2023-04-19T09:27:36.585Z,43.68
2023-04-19T09:30:07.278Z,42.96
2023-04-19T09:32:48.013Z,40.78
2023-04-19T09:35:16.726Z,40.08
2023-04-19T09:38:05.786Z,39.49
2023-04-19T09:40:35.472Z,41.23
2023-04-19T09:45:42.624Z,39.87
2023-04-19T09:48:11.941Z,40.56
2023-04-19T09:50:59.712Z,40.84
2023-04-19T09:53:34.481Z,40.31
2023-04-19T09:56:04.296Z,40.88
2023-04-19T10:01:13.997Z,39.81
2023-04-19T10:03:46.381Z,39.46
2023-04-19T10:08:51.425Z,39.90
2023-04-19T10:11:22.076Z,40.30
2023-04-19T10:13:50.342Z,41.21
2023-04-19T10:16:20.279Z,41.07
2023-04-19T10:18:50.303Z,41.22
2023-04-19T10:21:19.268Z,41.64
2023-04-19T10:23:47.884Z,39.97
2023-04-19T10:26:16.237Z,40.72
2023-04-19T10:28:44.392Z,41.15
2023-04-19T10:31:16.336Z,41.95
2023-04-19T10:33:44.705Z,42.78
2023-04-19T10:36:14.531Z,43.55
2023-04-19T10:38:51.609Z,43.19
2023-04-19T10:41:19.857Z,42.17
2023-04-19T10:44:00.339Z,42.74
2023-04-19T10:46:29.720Z,42.76
2023-04-19T10:48:59.292Z,42.24
2023-04-19T10:51:28.136Z,41.47
2023-04-19T10:54:18.721Z,42.07
2023-04-19T10:57:04.808Z,43.37
2023-04-19T10:59:37.354Z,44.10
2023-04-19T11:02:28.269Z,43.93
2023-04-19T11:04:56.600Z,43.62
2023-04-19T11:07:24.842Z,42.94
2023-04-19T11:09:53.021Z,42.46
2023-04-19T11:12:23.010Z,42.78
2023-04-19T11:14:53.121Z,43.59
2023-04-19T11:17:28.450Z,43.37
2023-04-19T11:19:56.801Z,43.82
2023-04-19T11:23:00.352Z,43.51
2023-04-19T11:25:31.702Z,44.14
2023-04-19T11:27:59.824Z,43.54
2023-04-19T11:30:30.805Z,43.63
2023-04-19T11:32:59.320Z,43.43
2023-04-19T11:35:28.104Z,43.54
2023-04-19T11:37:56.813Z,43.31
2023-04-19T11:40:28.562Z,43.06
2023-04-19T11:43:01.084Z,42.62
2023-04-19T11:45:34.455Z,42.69
2023-04-19T11:48:04.849Z,43.36
2023-04-19T11:50:34.020Z,43.30
2023-04-19T11:53:24.216Z,43.06
2023-04-19T11:56:08.572Z,42.75
2023-04-19T11:58:45.195Z,42.74
2023-04-19T12:01:14.039Z,42.94
2023-04-19T12:03:50.523Z,43.96
2023-04-19T12:06:29.915Z,44.37
2023-04-19T12:08:58.040Z,43.37
2023-04-19T12:11:27.320Z,44.67
2023-04-19T12:14:12.271Z,44.98
2023-04-19T12:16:40.629Z,44.86
2023-04-19T12:19:17.670Z,44.92
2023-04-19T12:21:46.875Z,44.83
2023-04-19T12:24:15.715Z,44.49
2023-04-19T12:26:56.247Z,44.26
2023-04-19T12:29:24.872Z,44.47
2023-04-19T12:31:53.234Z,44.62
2023-04-19T12:34:21.556Z,45.08
2023-04-19T12:36:50.147Z,45.25
2023-04-19T12:39:18.834Z,44.79
2023-04-19T12:41:48.902Z,45.56
2023-04-19T12:44:17.087Z,44.40
2023-04-19T12:46:45.305Z,45.15
2023-04-19T12:49:13.540Z,45.65
2023-04-19T12:51:42.923Z,45.74
2023-04-19T12:54:11.176Z,45.49
2023-04-19T12:56:39.249Z,45.72
2023-04-19T12:59:07.348Z,45.93
2023-04-19T13:01:35.847Z,45.56
2023-04-19T13:04:05.392Z,45.77
2023-04-19T13:06:34.864Z,45.64
2023-04-19T13:09:11.495Z,46.21
2023-04-19T13:11:42.370Z,45.21
2023-04-19T13:14:10.646Z,45.42
2023-04-19T13:16:38.695Z,44.83
2023-04-19T13:19:06.980Z,44.75
2023-04-19T13:21:35.326Z,45.17
2023-04-19T13:24:03.530Z,46.02
2023-04-19T13:26:31.689Z,47.03
2023-04-19T13:29:00.314Z,47.70
2023-04-19T13:31:28.643Z,47.85
2023-04-19T13:33:57.166Z,48.96
2023-04-19T13:36:25.251Z,48.75
2023-04-19T13:38:53.434Z,48.93
2023-04-19T13:41:21.626Z,48.84
2023-04-19T13:43:49.717Z,48.78
2023-04-19T13:46:18.036Z,47.73
2023-04-19T13:48:46.368Z,47.54
2023-04-19T13:51:14.426Z,47.66
2023-04-19T13:53:42.591Z,46.98
2023-04-19T13:56:11.432Z,47.17
2023-04-19T13:58:39.578Z,48.15
2023-04-19T14:01:07.974Z,49.07
2023-04-19T14:03:36.898Z,49.36
2023-04-19T14:06:05.367Z,49.34
2023-04-19T14:08:33.837Z,48.42
2023-04-19T14:11:02.005Z,48.45
2023-04-19T14:13:30.308Z,49.00
2023-04-19T14:15:58.467Z,49.22
2023-04-19T14:18:26.981Z,49.30
2023-04-19T14:20:55.396Z,49.62
2023-04-19T14:23:23.391Z,50.49
2023-04-19T14:25:53.530Z,50.62
2023-04-19T14:28:22.412Z,52.10
2023-04-19T14:30:50.571Z,52.96
2023-04-19T14:33:18.860Z,51.81
2023-04-19T14:35:47.442Z,51.83
2023-04-19T14:38:16.121Z,52.64
2023-04-19T14:40:44.283Z,53.35
2023-04-19T14:43:15.134Z,54.61
2023-04-19T14:45:43.529Z,55.04
2023-04-19T14:48:12.065Z,55.47
2023-04-19T14:50:40.150Z,56.22
2023-04-19T14:53:08.792Z,57.62
2023-04-19T14:55:40.066Z,58.56
2023-04-19T14:58:09.069Z,60.32
2023-04-19T15:00:37.675Z,60.55
2023-04-19T15:03:06.078Z,62.39
2023-04-19T15:05:34.986Z,62.87
2023-04-19T15:08:03.213Z,63.45
2023-04-19T15:10:32.149Z,64.65
2023-04-19T15:13:00.435Z,65.57
2023-04-19T15:15:29.594Z,67.45
2023-04-19T15:17:58.005Z,68.31
2023-04-19T15:20:26.453Z,68.90
2023-04-19T15:22:54.521Z,72.68
2023-04-19T15:25:22.791Z,71.67
2023-04-19T15:27:50.901Z,71.73
2023-04-19T15:30:19.215Z,73.33
2023-04-19T15:32:47.474Z,73.38
2023-04-19T15:35:15.947Z,73.62
2023-04-19T15:37:46.455Z,73.99
2023-04-19T15:40:17.128Z,76.28
2023-04-19T15:42:46.491Z,78.11
2023-04-19T15:45:15.726Z,78.97
2023-04-19T15:47:44.004Z,82.07
2023-04-19T15:50:12.147Z,81.60
2023-04-19T15:52:41.478Z,81.83
2023-04-19T15:55:09.885Z,80.69
2023-04-19T15:57:38.324Z,80.41
2023-04-19T16:00:09.504Z,80.44
2023-04-19T16:02:41.172Z,82.68
2023-04-19T16:05:09.610Z,79.67
2023-04-19T16:07:38.554Z,80.00
2023-04-19T16:10:07.570Z,78.92
2023-04-19T16:12:36.447Z,77.18
2023-04-19T16:15:05.544Z,78.75
2023-04-19T16:17:36.134Z,79.59
2023-04-19T16:20:04.934Z,80.08
2023-04-19T16:22:33.223Z,75.42
2023-04-19T16:25:03.701Z,73.47
2023-04-19T16:27:31.962Z,73.65
2023-04-19T16:30:00.151Z,72.40
2023-04-19T16:32:28.492Z,70.36
2023-04-19T16:34:56.707Z,68.80
2023-04-19T16:37:25.786Z,68.76
2023-04-19T16:39:53.968Z,68.73
2023-04-19T16:42:22.227Z,68.26
2023-04-19T16:44:50.343Z,67.92
2023-04-19T16:47:18.462Z,67.82
2023-04-19T16:49:50.647Z,68.64
2023-04-19T16:52:19.202Z,69.17
2023-04-19T16:54:47.291Z,69.66
2023-04-19T16:57:16.533Z,70.73
2023-04-19T16:59:45.001Z,71.46
2023-04-19T17:02:13.211Z,70.57
2023-04-19T17:04:41.614Z,69.96
2023-04-19T17:07:09.968Z,69.41
2023-04-19T17:09:38.304Z,72.13
2023-04-19T17:12:07.160Z,70.80
2023-04-19T17:14:35.470Z,71.49
2023-04-19T17:17:03.777Z,74.61
2023-04-19T17:19:31.878Z,76.69
2023-04-19T17:22:05.770Z,75.06
2023-04-19T17:24:34.327Z,76.16
2023-04-19T17:27:02.693Z,77.43
2023-04-19T17:29:31.191Z,78.80
2023-04-19T17:32:00.332Z,80.44
2023-04-19T17:34:28.638Z,81.07
2023-04-19T17:36:56.828Z,79.22
2023-04-19T17:39:27.899Z,79.92
2023-04-19T17:41:56.387Z,77.94
2023-04-19T17:44:24.537Z,78.99
2023-04-19T17:46:52.748Z,77.21
2023-04-19T17:49:21.990Z,76.26
2023-04-19T17:51:53.274Z,76.57
2023-04-19T17:54:21.370Z,77.54
2023-04-19T17:56:49.501Z,81.15
2023-04-19T17:59:17.933Z,81.49
2023-04-19T18:01:46.265Z,81.51
2023-04-19T18:04:18.155Z,81.46
2023-04-19T18:06:46.981Z,80.61
2023-04-19T18:09:16.905Z,81.59
2023-04-19T18:11:45.219Z,82.79
2023-04-19T18:14:15.371Z,82.67
2023-04-19T18:16:43.655Z,83.01
2023-04-19T18:19:11.899Z,81.29
2023-04-19T18:21:40.103Z,79.84
2023-04-19T18:24:08.471Z,79.21
2023-04-19T18:26:41.464Z,78.14
2023-04-19T18:29:10.349Z,77.05
2023-04-19T18:31:38.565Z,76.10
2023-04-19T18:34:07.071Z,75.82
2023-04-19T18:36:35.294Z,76.06
2023-04-19T18:39:04.590Z,76.30
2023-04-19T18:41:33.636Z,75.33
2023-04-19T18:46:34.180Z,77.27
2023-04-19T18:49:02.340Z,78.30
2023-04-19T18:51:30.859Z,77.96
2023-04-19T18:53:58.925Z,75.89
2023-04-19T18:57:04.427Z,75.00
2023-04-19T18:59:16.005Z,75.14
2023-04-19T19:01:45.762Z,74.10
2023-04-19T19:04:42.849Z,73.72
2023-04-19T19:07:27.372Z,74.87
2023-04-19T19:10:06.365Z,75.76
2023-04-19T19:12:44.727Z,75.28
2023-04-19T19:15:13.801Z,75.73
2023-04-19T19:17:43.358Z,76.35
2023-04-19T19:20:12.108Z,79.07
2023-04-19T19:22:40.472Z,79.35
2023-04-19T19:25:10.718Z,81.03
2023-04-19T19:27:39.078Z,81.51
2023-04-19T19:30:08.374Z,80.93
2023-04-19T19:32:37.149Z,81.32
2023-04-19T19:35:08.536Z,78.53
2023-04-19T19:37:37.299Z,75.70
2023-04-19T19:40:06.771Z,73.95
2023-04-19T19:42:35.368Z,72.42
2023-04-19T19:45:04.282Z,72.21
2023-04-19T19:47:35.512Z,74.16
2023-04-19T19:50:50.542Z,74.11
2023-04-19T19:52:52.619Z,75.86
2023-04-19T19:55:20.815Z,77.23
2023-04-19T19:58:25.810Z,78.71
2023-04-19T20:00:46.293Z,79.91
2023-04-19T20:03:28.470Z,78.97
2023-04-19T20:08:43.983Z,77.50
2023-04-19T20:11:12.832Z,78.78
2023-04-19T20:13:41.221Z,81.19
2023-04-19T20:16:10.993Z,84.77
2023-04-19T20:18:39.256Z,88.39
2023-04-19T20:21:07.776Z,89.82
2023-04-19T20:23:39.941Z,91.07
2023-04-19T20:26:08.395Z,92.64
2023-04-19T20:28:36.674Z,95.54
2023-04-19T20:31:05.053Z,95.39
2023-04-19T20:33:34.059Z,93.64
2023-04-19T20:36:04.408Z,92.48
2023-04-19T20:38:34.636Z,92.87
2023-04-19T20:41:03.294Z,91.99
2023-04-19T20:43:32.626Z,92.51
2023-04-19T20:46:00.970Z,92.94
2023-04-19T20:48:29.471Z,91.49
2023-04-19T20:50:57.776Z,90.88
2023-04-19T20:53:26.210Z,89.93
2023-04-19T20:55:54.357Z,89.91
2023-04-19T20:58:22.977Z,89.06
2023-04-19T21:00:51.223Z,88.28
2023-04-19T21:03:21.146Z,88.65
2023-04-19T21:05:49.412Z,88.45
2023-04-19T21:08:19.180Z,89.34
2023-04-19T21:10:47.325Z,90.52
2023-04-19T21:13:15.827Z,91.98
2023-04-19T21:15:44.019Z,94.20
2023-04-19T21:18:12.178Z,92.78
2023-04-19T21:20:40.688Z,91.76
2023-04-19T21:23:08.894Z,92.59
2023-04-19T21:25:37.345Z,91.44
2023-04-19T21:28:05.690Z,90.30
2023-04-19T21:30:33.817Z,87.39
2023-04-19T21:33:01.951Z,85.56
2023-04-19T21:35:30.175Z,83.20
2023-04-19T21:37:58.240Z,80.78
2023-04-19T21:40:26.331Z,79.77
2023-04-19T21:42:54.628Z,79.17
2023-04-19T21:45:22.779Z,78.54
2023-04-19T21:47:52.192Z,77.99
2023-04-19T21:50:20.703Z,76.91
2023-04-19T21:52:48.830Z,77.28
2023-04-19T21:55:16.923Z,77.85
2023-04-19T21:57:45.040Z,77.53
2023-04-19T22:00:13.960Z,77.49
2023-04-19T22:02:42.554Z,78.37
2023-04-19T22:05:10.923Z,77.77
2023-04-19T22:07:40.385Z,77.99
2023-04-19T22:10:09.525Z,78.33
2023-04-19T22:12:47.984Z,79.68
2023-04-19T22:15:25.972Z,80.58
2023-04-19T22:17:54.330Z,81.26
2023-04-19T22:20:23.918Z,81.64
2023-04-19T22:22:52.000Z,82.35
2023-04-19T22:25:20.345Z,81.95
2023-04-19T22:27:48.990Z,82.49
2023-04-19T22:30:16.990Z,82.37
2023-04-19T22:32:45.168Z,82.75
2023-04-19T22:35:13.302Z,83.59
2023-04-19T22:37:41.776Z,86.05
2023-04-19T22:40:10.362Z,86.53
2023-04-19T22:42:38.600Z,87.54
2023-04-19T22:45:08.217Z,88.30
2023-04-19T22:47:37.513Z,87.35
2023-04-19T22:50:07.606Z,86.69
2023-04-19T22:52:35.866Z,85.77
2023-04-19T22:55:04.186Z,84.87
2023-04-19T22:57:32.492Z,84.86
2023-04-19T23:00:00.551Z,84.58
2023-04-19T23:02:28.870Z,84.30
2023-04-19T23:04:58.830Z,83.97
2023-04-19T23:07:28.979Z,83.77
2023-04-19T23:09:57.238Z,81.34
2023-04-19T23:12:25.359Z,80.00
2023-04-19T23:14:53.902Z,80.63
2023-04-19T23:17:21.890Z,81.72
2023-04-19T23:19:49.989Z,82.31
2023-04-19T23:22:18.107Z,83.21
2023-04-19T23:24:46.177Z,83.65
2023-04-19T23:27:14.368Z,84.37
2023-04-19T23:29:42.522Z,85.76
2023-04-19T23:32:10.582Z,86.36
2023-04-19T23:34:38.697Z,86.28
2023-04-19T23:37:06.798Z,86.50
2023-04-19T23:39:35.467Z,87.58
2023-04-19T23:42:03.853Z,87.85
2023-04-19T23:44:32.466Z,87.61
2023-04-19T23:47:02.652Z,88.25
2023-04-19T23:49:31.502Z,87.89
2023-04-19T23:51:59.673Z,87.31
2023-04-19T23:54:28.112Z,87.60
2023-04-19T23:56:57.819Z,87.63
2023-04-19T23:59:27.009Z,86.74
